createdAt,value
2022-08-11T00:02:05.939Z,101330.34
2022-08-11T00:05:07.663Z,101333.31
2022-08-11T00:08:00.964Z,101340.59
2022-08-11T00:10:49.664Z,101340.84
2022-08-11T00:13:48.057Z,101340.66
2022-08-11T00:16:36.646Z,101344.31
2022-08-11T00:19:19.644Z,101335.03
2022-08-11T00:22:29.924Z,101328.75
2022-08-11T00:25:28.541Z,101326.06
2022-08-11T00:28:43.700Z,101331.81
2022-08-11T00:31:33.944Z,101329.88
2022-08-11T00:34:24.118Z,101326.69
2022-08-11T00:37:11.775Z,101331.16
2022-08-11T00:40:04.741Z,101323.34
2022-08-11T00:43:27.576Z,101328.94
2022-08-11T00:46:35.300Z,101321.28
2022-08-11T00:49:50.697Z,101318.38
2022-08-11T00:53:04.702Z,101320.41
2022-08-11T00:56:16.952Z,101307.25
2022-08-11T00:59:43.507Z,101311.47
2022-08-11T01:02:45.601Z,101311.09
2022-08-11T01:05:58.680Z,101310.84
2022-08-11T01:09:22.234Z,101305.03
2022-08-11T01:12:22.752Z,101309.94
2022-08-11T01:15:57.542Z,101306.06
2022-08-11T01:19:03.697Z,101301.06
2022-08-11T01:22:03.601Z,101297.41
2022-08-11T01:25:23.074Z,101302.34
2022-08-11T01:28:27.986Z,101296.09
2022-08-11T01:31:56.934Z,101305.22
2022-08-11T01:35:30.602Z,101302.38
2022-08-11T01:39:05.199Z,101308.94
2022-08-11T01:42:50.818Z,101304.94
2022-08-11T01:45:58.737Z,101302.22
2022-08-11T01:48:51.621Z,101301.06
2022-08-11T01:51:56.974Z,101301.59
2022-08-11T01:54:54.002Z,101298.75
2022-08-11T01:57:58.552Z,101295.94
2022-08-11T02:00:53.727Z,101298.97
2022-08-11T02:04:03.381Z,101292.22
2022-08-11T02:07:13.015Z,101294.38
2022-08-11T02:10:57.528Z,101303.63
2022-08-11T02:14:04.984Z,101303.50
2022-08-11T02:17:15.732Z,101298.72
2022-08-11T02:20:26.627Z,101303.28
2022-08-11T02:24:06.831Z,101311.53
2022-08-11T02:26:53.628Z,101302.69
2022-08-11T02:30:10.077Z,101304.66
2022-08-11T02:33:33.379Z,101306.56
2022-08-11T02:36:46.842Z,101311.00
2022-08-11T02:39:32.708Z,101318.22
2022-08-11T02:42:39.232Z,101317.09
2022-08-11T02:45:47.196Z,101311.88
2022-08-11T02:49:04.916Z,101312.84
2022-08-11T02:52:15.643Z,101306.56
2022-08-11T02:55:48.708Z,101318.06
2022-08-11T02:59:41.869Z,101317.66
2022-08-11T03:02:37.913Z,101324.22
2022-08-11T03:05:24.581Z,101322.53
2022-08-11T03:08:25.734Z,101327.81
2022-08-11T03:11:30.682Z,101330.09
2022-08-11T03:15:20.422Z,101320.09
2022-08-11T03:18:35.830Z,101312.00
2022-08-11T03:22:01.429Z,101320.16
2022-08-11T03:24:59.067Z,101314.34
2022-08-11T03:28:00.018Z,101309.72
2022-08-11T03:31:04.814Z,101317.00
2022-08-11T03:34:19.460Z,101319.06
2022-08-11T03:37:16.348Z,101318.03
2022-08-11T03:40:38.347Z,101316.03
2022-08-11T03:43:58.803Z,101319.75
2022-08-11T03:47:16.369Z,101321.50
2022-08-11T03:53:38.097Z,101315.53
2022-08-11T03:56:55.679Z,101310.88
2022-08-11T04:00:19.310Z,101316.59
2022-08-11T04:03:16.220Z,101312.94
2022-08-11T04:06:14.807Z,101305.59
2022-08-11T04:09:01.713Z,101313.84
2022-08-11T04:12:35.798Z,101306.84
2022-08-11T04:16:10.776Z,101308.03
2022-08-11T04:19:27.804Z,101308.03
2022-08-11T04:22:22.119Z,101309.78
2022-08-11T04:25:19.952Z,101312.75
2022-08-11T04:28:32.425Z,101303.44
2022-08-11T04:31:50.287Z,101303.34
2022-08-11T04:35:10.533Z,101307.81
2022-08-11T04:38:35.296Z,101312.31
2022-08-11T04:42:13.097Z,101300.63
2022-08-11T04:45:34.079Z,101306.97
2022-08-11T04:48:43.106Z,101305.44
2022-08-11T04:52:21.741Z,101313.38
2022-08-11T04:55:47.118Z,101307.78
2022-08-11T04:59:09.693Z,101304.22
2022-08-11T05:01:59.808Z,101309.56
2022-08-11T05:05:30.718Z,101309.22
2022-08-11T05:08:42.756Z,101305.50
2022-08-11T05:11:36.850Z,101310.09
2022-08-11T05:15:23.004Z,101308.03
2022-08-11T05:18:55.071Z,101306.22
2022-08-11T05:22:04.751Z,101306.19
2022-08-11T05:26:45.269Z,101307.59
2022-08-11T05:29:19.543Z,101309.53
2022-08-11T05:32:28.273Z,101305.28
2022-08-11T05:36:01.480Z,101318.41
2022-08-11T05:38:46.362Z,101310.44
2022-08-11T05:41:55.889Z,101321.47
2022-08-11T05:44:56.619Z,101318.06
2022-08-11T05:48:08.127Z,101332.69
2022-08-11T05:51:16.591Z,101330.00
2022-08-11T05:54:46.759Z,101331.53
2022-08-11T05:57:49.990Z,101324.78
2022-08-11T06:04:02.595Z,101335.75
2022-08-11T06:06:47.905Z,101325.81
2022-08-11T06:09:50.716Z,101325.28
2022-08-11T06:12:40.201Z,101320.50
2022-08-11T06:15:30.926Z,101316.81
2022-08-11T06:18:16.785Z,101323.00
2022-08-11T06:21:06.272Z,101317.00
2022-08-11T06:23:51.776Z,101320.16
2022-08-11T06:27:08.766Z,101313.03
2022-08-11T06:29:54.751Z,101316.06
2022-08-11T06:32:50.751Z,101317.47
2022-08-11T06:35:38.970Z,101316.63
2022-08-11T06:38:45.903Z,101320.34
2022-08-11T06:41:41.554Z,101313.88
2022-08-11T06:44:46.818Z,101317.25
2022-08-11T06:47:27.783Z,101329.66
2022-08-11T06:50:34.511Z,101331.56
2022-08-11T06:53:27.315Z,101327.97
2022-08-11T06:56:28.290Z,101326.63
2022-08-11T06:59:35.800Z,101322.00
2022-08-11T07:02:29.180Z,101323.34
2022-08-11T07:05:37.875Z,101322.16
2022-08-11T07:08:55.538Z,101315.31
2022-08-11T07:12:24.889Z,101331.25
2022-08-11T07:16:10.536Z,101326.44
2022-08-11T07:19:03.636Z,101328.66
2022-08-11T07:22:07.835Z,101322.50
2022-08-11T07:25:21.565Z,101319.59
2022-08-11T07:28:31.629Z,101315.81
2022-08-11T07:31:25.334Z,101307.72
2022-08-11T07:34:18.611Z,101304.88
2022-08-11T07:37:16.201Z,101307.59
2022-08-11T07:39:59.106Z,101305.72
2022-08-11T07:42:52.836Z,101309.50
2022-08-11T07:45:53.834Z,101307.75
2022-08-11T07:49:00.824Z,101307.72
2022-08-11T07:52:15.835Z,101294.44
2022-08-11T07:55:06.178Z,101300.06
2022-08-11T07:58:16.068Z,101299.34
2022-08-11T08:01:25.904Z,101291.00
2022-08-11T08:04:25.516Z,101291.59
2022-08-11T08:07:31.843Z,101284.78
2022-08-11T08:10:35.902Z,101284.06
2022-08-11T08:13:41.936Z,101284.63
2022-08-11T08:16:41.857Z,101281.00
2022-08-11T08:19:29.585Z,101271.19
2022-08-11T08:22:38.388Z,101270.75
2022-08-11T08:25:35.028Z,101266.47
2022-08-11T08:28:25.402Z,101262.72
2022-08-11T08:31:16.235Z,101271.59
2022-08-11T08:33:58.026Z,101262.28
2022-08-11T08:36:48.861Z,101268.66
2022-08-11T08:39:31.814Z,101264.97
2022-08-11T08:42:24.854Z,101265.34
2022-08-11T08:45:18.484Z,101269.56
2022-08-11T08:48:08.869Z,101262.31
2022-08-11T08:51:18.629Z,101257.47
2022-08-11T08:54:17.889Z,101267.38
2022-08-11T08:57:05.677Z,101261.94
2022-08-11T08:59:57.376Z,101254.16
2022-08-11T09:02:38.012Z,101243.66
2022-08-11T09:05:28.890Z,101248.63
2022-08-11T09:08:11.826Z,101245.94
2022-08-11T09:11:24.128Z,101253.72
2022-08-11T09:14:08.251Z,101249.94
2022-08-11T09:16:59.380Z,101243.34
2022-08-11T09:19:41.100Z,101229.03
2022-08-11T09:22:57.413Z,101249.47
2022-08-11T09:26:09.784Z,101226.00
2022-08-11T09:29:00.276Z,101223.88
2022-08-11T09:31:43.425Z,101211.81
2022-08-11T09:34:33.487Z,101209.22
2022-08-11T09:37:54.352Z,101217.34
2022-08-11T09:40:52.938Z,101214.28
2022-08-11T09:44:02.195Z,101199.53
2022-08-11T09:46:52.284Z,101208.88
2022-08-11T09:49:37.021Z,101207.53
2022-08-11T09:52:31.928Z,101195.63
2022-08-11T09:55:22.109Z,101186.88
2022-08-11T09:58:42.761Z,101172.94
2022-08-11T10:01:37.753Z,101188.91
2022-08-11T10:04:39.649Z,101192.78
2022-08-11T10:07:32.196Z,101187.75
2022-08-11T10:10:17.727Z,101184.78
2022-08-11T10:14:04.893Z,101185.78
2022-08-11T10:16:16.885Z,101188.56
2022-08-11T10:19:08.375Z,101183.66
2022-08-11T10:22:13.921Z,101174.44
2022-08-11T10:25:22.487Z,101183.03
2022-08-11T10:28:28.414Z,101203.97
2022-08-11T10:31:56.986Z,101171.72
2022-08-11T10:34:36.014Z,101199.44
2022-08-11T10:38:09.024Z,101179.53
2022-08-11T10:40:37.333Z,101176.69
2022-08-11T10:44:02.025Z,101168.81
2022-08-11T10:46:45.955Z,101172.38
2022-08-11T10:49:35.064Z,101155.31
2022-08-11T10:52:47.966Z,101202.97
2022-08-11T10:55:53.966Z,101143.59
2022-08-11T10:59:02.053Z,101157.47
2022-08-11T11:01:55.050Z,101161.81
2022-08-11T11:05:04.964Z,101155.53
2022-08-11T11:08:57.746Z,101143.66
2022-08-11T11:12:05.374Z,101153.69
2022-08-11T11:15:17.901Z,101147.22
2022-08-11T11:18:10.978Z,101154.47
2022-08-11T11:21:10.464Z,101134.84
2022-08-11T11:23:58.001Z,101127.28
2022-08-11T11:27:07.117Z,101137.75
2022-08-11T11:30:15.368Z,101122.38
2022-08-11T11:33:32.575Z,101122.25
2022-08-11T11:36:53.986Z,101121.59
2022-08-11T11:39:43.502Z,101110.34
2022-08-11T11:42:24.999Z,101110.44
2022-08-11T11:45:22.630Z,101128.03
2022-08-11T11:48:07.353Z,101119.91
2022-08-11T11:50:58.462Z,101115.13
2022-08-11T11:53:52.411Z,101134.31
2022-08-11T11:56:41.146Z,101127.19
2022-08-11T11:59:41.484Z,101136.06
2022-08-11T12:02:30.089Z,101104.50
2022-08-11T12:05:15.277Z,101104.28
2022-08-11T12:08:21.593Z,101112.16
2022-08-11T12:11:27.610Z,101118.78
2022-08-11T12:14:16.155Z,101094.56
2022-08-11T12:16:59.368Z,101117.56
2022-08-11T12:19:49.727Z,101095.56
2022-08-11T12:22:52.896Z,101092.09
2022-08-11T12:26:25.219Z,101107.25
2022-08-11T12:29:05.225Z,101087.56
2022-08-11T12:31:55.238Z,101077.72
2022-08-11T12:34:36.024Z,101080.59
2022-08-11T12:37:35.184Z,101107.84
2022-08-11T12:41:11.664Z,101084.63
2022-08-11T12:44:12.996Z,101072.31
2022-08-11T12:46:54.987Z,101089.88
2022-08-11T12:50:06.784Z,101093.69
2022-08-11T12:53:15.069Z,101071.56
2022-08-11T12:56:17.102Z,101073.38
2022-08-11T12:59:28.026Z,101083.06
2022-08-11T13:02:28.541Z,101058.84
2022-08-11T13:05:23.417Z,101054.59
2022-08-11T13:08:04.938Z,101049.56
2022-08-11T13:11:12.615Z,101055.94
2022-08-11T13:13:57.953Z,101053.94
2022-08-11T13:17:04.086Z,101061.66
2022-08-11T13:19:49.726Z,101063.97
2022-08-11T13:22:40.485Z,101045.31
2022-08-11T13:25:24.441Z,101050.59
2022-08-11T13:28:12.124Z,101037.94
2022-08-11T13:31:12.373Z,101029.81
2022-08-11T13:34:01.842Z,101040.16
2022-08-11T13:36:43.140Z,101036.84
2022-08-11T13:39:35.277Z,101042.41
2022-08-11T13:42:16.612Z,101051.88
2022-08-11T13:45:04.064Z,101030.09
2022-08-11T13:47:50.103Z,101036.84
2022-08-11T13:50:59.075Z,101026.66
2022-08-11T13:53:46.231Z,101039.28
2022-08-11T13:56:31.492Z,101032.28
2022-08-11T13:59:30.825Z,101023.50
2022-08-11T14:02:29.393Z,101023.16
2022-08-11T14:05:23.621Z,101023.50
2022-08-11T14:08:31.756Z,101011.22
2022-08-11T14:12:22.060Z,101008.31
2022-08-11T14:14:43.098Z,101015.66
2022-08-11T14:17:38.371Z,101008.91
2022-08-11T14:20:39.012Z,101021.63
2022-08-11T14:23:35.192Z,101015.84
2022-08-11T14:26:30.832Z,101008.56
2022-08-11T14:29:25.466Z,101001.56
2022-08-11T14:32:09.069Z,101006.53
2022-08-11T14:34:57.206Z,100999.97
2022-08-11T14:37:38.076Z,101011.22
2022-08-11T14:40:44.034Z,101004.94
2022-08-11T14:44:03.340Z,100987.97
2022-08-11T14:47:23.706Z,100998.59
2022-08-11T14:50:11.128Z,101024.63
2022-08-11T14:53:17.873Z,101000.63
2022-08-11T14:56:37.832Z,100989.81
2022-08-11T14:59:20.251Z,100984.91
2022-08-11T15:02:30.839Z,100994.53
2022-08-11T15:05:13.704Z,100985.00
2022-08-11T15:08:02.133Z,100986.09
2022-08-11T15:10:44.220Z,100988.13
2022-08-11T15:13:32.505Z,100964.72
2022-08-11T15:16:33.109Z,100968.63
2022-08-11T15:19:22.264Z,100984.84
2022-08-11T15:22:27.782Z,100979.09
2022-08-11T15:25:16.146Z,100975.72
2022-08-11T15:28:18.753Z,100974.47
2022-08-11T15:31:25.494Z,100976.78
2022-08-11T15:34:28.795Z,100974.13
2022-08-11T15:37:33.983Z,100974.13
2022-08-11T15:40:34.701Z,100961.44
2022-08-11T15:43:53.147Z,100979.22
2022-08-11T15:46:48.432Z,100999.28
2022-08-11T15:50:11.189Z,100961.13
2022-08-11T15:53:02.121Z,100960.31
2022-08-11T15:55:50.117Z,100958.47
2022-08-11T15:59:10.568Z,100964.81
2022-08-11T16:02:23.498Z,100956.09
2022-08-11T16:05:09.024Z,100954.31
2022-08-11T16:08:00.140Z,100938.44
2022-08-11T16:10:44.086Z,100940.31
2022-08-11T16:13:34.511Z,100949.41
2022-08-11T16:16:18.795Z,100946.25
2022-08-11T16:19:08.151Z,100953.72
2022-08-11T16:21:50.648Z,100943.47
2022-08-11T16:27:03.922Z,100947.47
2022-08-11T16:27:44.297Z,100951.44
2022-08-11T16:30:32.159Z,100951.28
2022-08-11T16:33:48.686Z,100940.44
2022-08-11T16:36:52.176Z,100959.41
2022-08-11T16:39:36.408Z,100940.75
2022-08-11T16:43:08.627Z,100939.78
2022-08-11T16:46:05.994Z,100935.25
2022-08-11T16:48:56.154Z,100937.84
2022-08-11T16:51:38.307Z,100926.50
2022-08-11T16:54:27.943Z,100942.25
2022-08-11T16:57:43.837Z,100930.13
2022-08-11T17:00:32.192Z,100920.13
2022-08-11T17:03:33.235Z,100926.00
2022-08-11T17:06:40.190Z,100925.28
2022-08-11T17:09:44.736Z,100926.41
2022-08-11T17:12:54.200Z,100933.94
2022-08-11T17:15:55.889Z,100923.34
2022-08-11T17:19:01.385Z,100920.91
2022-08-11T17:22:11.742Z,100925.47
2022-08-11T17:25:02.575Z,100939.72
2022-08-11T17:27:47.210Z,100932.47
2022-08-11T17:30:57.205Z,100925.59
2022-08-11T17:33:58.112Z,100922.16
2022-08-11T17:36:51.187Z,100917.00
2022-08-11T17:39:38.107Z,100921.38
2022-08-11T17:42:48.008Z,100919.03
2022-08-11T17:45:49.964Z,100914.63
2022-08-11T17:48:47.302Z,100921.75
2022-08-11T17:51:50.831Z,100923.38
2022-08-11T17:55:06.022Z,100933.84
2022-08-11T17:58:15.232Z,100924.38
2022-08-11T18:01:01.939Z,100925.66
2022-08-11T18:04:01.235Z,100933.28
2022-08-11T18:06:44.196Z,100922.81
2022-08-11T18:09:51.259Z,100923.47
2022-08-11T18:12:51.219Z,100923.59
2022-08-11T18:15:58.324Z,100925.56
2022-08-11T18:18:59.596Z,100926.09
2022-08-11T18:22:14.813Z,100929.41
2022-08-11T18:25:22.980Z,100924.50
2022-08-11T18:28:34.387Z,100928.13
2022-08-11T18:31:38.218Z,100944.66
2022-08-11T18:34:50.245Z,100937.44
2022-08-11T18:37:58.222Z,100936.56
2022-08-11T18:41:05.273Z,100943.97
2022-08-11T18:44:10.331Z,100953.19
2022-08-11T18:47:20.856Z,100947.75
2022-08-11T18:50:31.303Z,100963.25
2022-08-11T18:53:52.039Z,100951.81
2022-08-11T18:56:58.904Z,100951.47
2022-08-11T19:00:08.867Z,100951.19
2022-08-11T19:03:09.992Z,100952.88
2022-08-11T19:06:40.243Z,100950.16
2022-08-11T19:09:42.248Z,100958.25
2022-08-11T19:12:51.019Z,100954.06
2022-08-11T19:15:52.621Z,100956.38
2022-08-11T19:19:02.037Z,100953.53
2022-08-11T19:22:04.013Z,100969.53
2022-08-11T19:25:13.191Z,100955.03
2022-08-11T19:28:14.280Z,100969.22
2022-08-11T19:31:23.238Z,100955.19
2022-08-11T19:34:24.276Z,100975.78
2022-08-11T19:37:31.998Z,100966.97
2022-08-11T19:40:36.419Z,100971.94
2022-08-11T19:43:46.177Z,100969.59
2022-08-11T19:46:48.312Z,100964.84
2022-08-11T19:49:56.209Z,100968.00
2022-08-11T19:52:58.416Z,100968.34
2022-08-11T19:56:06.931Z,100972.47
2022-08-11T19:59:06.283Z,100978.19
2022-08-11T20:02:14.222Z,100980.59
2022-08-11T20:05:14.452Z,100978.94
2022-08-11T20:08:24.879Z,100981.22
2022-08-11T20:11:25.126Z,100999.00
2022-08-11T20:14:33.127Z,101000.09
2022-08-11T20:17:35.377Z,100994.91
2022-08-11T20:20:45.344Z,100993.63
2022-08-11T20:23:46.419Z,100995.88
2022-08-11T20:26:55.008Z,101005.44
2022-08-11T20:29:57.302Z,101005.09
2022-08-11T20:33:07.828Z,101007.34
2022-08-11T20:36:08.151Z,101012.47
2022-08-11T20:39:16.019Z,101013.88
2022-08-11T20:42:16.296Z,101013.22
2022-08-11T20:45:27.977Z,101026.13
2022-08-11T20:48:29.468Z,101024.50
2022-08-11T20:51:38.939Z,101029.06
2022-08-11T20:54:55.090Z,101030.81
2022-08-11T20:58:06.037Z,101045.97
2022-08-11T21:01:20.539Z,101052.06
2022-08-11T21:04:30.291Z,101058.53
2022-08-11T21:07:31.350Z,101056.53
2022-08-11T21:10:42.068Z,101069.19
2022-08-11T21:13:43.349Z,101066.31
2022-08-11T21:17:01.296Z,101076.63
2022-08-11T21:20:30.320Z,101072.22
2022-08-11T21:23:38.475Z,101076.63
2022-08-11T21:26:43.720Z,101083.72
2022-08-11T21:29:51.258Z,101075.78
2022-08-11T21:32:55.948Z,101083.16
2022-08-11T21:36:04.787Z,101085.31
2022-08-11T21:39:05.721Z,101081.91
2022-08-11T21:42:12.501Z,101087.03
2022-08-11T21:45:16.251Z,101086.28
2022-08-11T21:48:23.539Z,101089.44
2022-08-11T21:51:25.342Z,101091.88
2022-08-11T21:54:33.220Z,101096.56
2022-08-11T21:57:34.279Z,101090.56
2022-08-11T22:00:43.758Z,101087.72
2022-08-11T22:03:49.543Z,101093.91
2022-08-11T22:06:58.165Z,101079.69
2022-08-11T22:09:57.605Z,101075.78
2022-08-11T22:13:06.366Z,101076.66
2022-08-11T22:16:05.770Z,101082.03
2022-08-11T22:19:17.336Z,101087.41
2022-08-11T22:22:17.491Z,101092.66
2022-08-11T22:25:28.751Z,101089.28
2022-08-11T22:28:38.474Z,101086.94
2022-08-11T22:31:46.036Z,101085.56
2022-08-11T22:34:53.326Z,101081.09
2022-08-11T22:38:03.210Z,101083.47
2022-08-11T22:41:03.544Z,101079.78
2022-08-11T22:44:09.860Z,101080.44
2022-08-11T22:47:09.391Z,101089.50
2022-08-11T22:50:23.619Z,101079.09
2022-08-11T22:53:23.396Z,101079.66
2022-08-11T22:56:32.060Z,101077.47
2022-08-11T22:59:34.148Z,101074.13
2022-08-11T23:02:41.522Z,101081.94
2022-08-11T23:05:42.407Z,101083.91
2022-08-11T23:08:50.010Z,101088.56
2022-08-11T23:12:07.590Z,101091.72
2022-08-11T23:15:18.340Z,101088.19
2022-08-11T23:18:20.149Z,101082.63
2022-08-11T23:21:28.095Z,101085.50
2022-08-11T23:24:29.123Z,101087.69
2022-08-11T23:27:40.452Z,101089.00
2022-08-11T23:30:43.185Z,101079.25
2022-08-11T23:33:49.792Z,101095.16
2022-08-11T23:36:48.443Z,101085.41
2022-08-11T23:39:57.568Z,101092.63
2022-08-11T23:43:04.344Z,101093.84
2022-08-11T23:46:11.291Z,101088.84
2022-08-11T23:49:18.420Z,101087.53
2022-08-11T23:52:26.753Z,101086.81
2022-08-11T23:55:40.590Z,101089.56
2022-08-11T23:58:47.281Z,101082.84
